createdAt,value
2022-07-26T00:01:31.927Z,19.02
2022-07-26T00:03:59.591Z,19.03
2022-07-26T00:06:26.496Z,19.01
2022-07-26T00:08:53.739Z,19.02
2022-07-26T00:11:21.376Z,18.99
2022-07-26T00:13:48.733Z,18.99
2022-07-26T00:16:15.736Z,18.99
2022-07-26T00:18:42.895Z,18.99
2022-07-26T00:21:09.892Z,18.96
2022-07-26T00:23:39.309Z,18.97
2022-07-26T00:26:06.291Z,18.95
2022-07-26T00:28:33.135Z,18.95
2022-07-26T00:31:00.994Z,18.94
2022-07-26T00:33:27.887Z,18.93
2022-07-26T00:35:54.739Z,18.93
2022-07-26T00:38:21.653Z,18.93
2022-07-26T00:40:48.498Z,18.91
2022-07-26T00:43:15.411Z,18.91
2022-07-26T00:45:42.688Z,18.90
2022-07-26T00:48:09.590Z,18.87
2022-07-26T00:50:38.109Z,18.89
2022-07-26T00:53:05.158Z,18.87
2022-07-26T00:55:32.821Z,18.87
2022-07-26T00:58:01.511Z,18.87
2022-07-26T01:00:29.371Z,18.87
2022-07-26T01:02:57.535Z,18.86
2022-07-26T01:05:24.978Z,18.86
2022-07-26T01:07:53.322Z,18.85
2022-07-26T01:10:20.677Z,18.83
2022-07-26T01:12:47.781Z,18.84
2022-07-26T01:15:16.571Z,18.84
2022-07-26T01:17:44.158Z,18.82
2022-07-26T01:20:13.025Z,18.82
2022-07-26T01:22:40.246Z,18.82
2022-07-26T01:25:07.953Z,18.80
2022-07-26T01:27:39.689Z,18.81
2022-07-26T01:30:11.748Z,18.80
2022-07-26T01:32:38.880Z,18.77
2022-07-26T01:35:07.482Z,18.77
2022-07-26T01:37:34.407Z,18.75
2022-07-26T01:40:01.328Z,18.76
2022-07-26T01:42:28.294Z,18.75
2022-07-26T01:44:55.205Z,18.74
2022-07-26T01:47:22.176Z,18.74
2022-07-26T01:49:49.088Z,18.74
2022-07-26T01:52:16.010Z,18.73
2022-07-26T01:54:42.912Z,18.74
2022-07-26T01:57:09.737Z,18.73
2022-07-26T01:59:36.685Z,18.74
2022-07-26T02:02:03.631Z,18.73
2022-07-26T02:04:49.553Z,18.72
2022-07-26T02:07:16.439Z,18.74
2022-07-26T02:09:43.367Z,18.72
2022-07-26T02:12:10.289Z,18.71
2022-07-26T02:14:37.289Z,18.70
2022-07-26T02:17:04.308Z,18.69
2022-07-26T02:19:32.003Z,18.68
2022-07-26T02:21:59.802Z,18.68
2022-07-26T02:24:29.989Z,18.67
2022-07-26T02:26:58.393Z,18.67
2022-07-26T02:29:25.564Z,18.66
2022-07-26T02:31:53.499Z,18.65
2022-07-26T02:34:20.893Z,18.64
2022-07-26T02:36:47.798Z,18.64
2022-07-26T02:39:15.179Z,18.62
2022-07-26T02:41:42.530Z,18.61
2022-07-26T02:44:10.576Z,18.61
2022-07-26T02:46:38.474Z,18.61
2022-07-26T02:49:05.670Z,18.59
2022-07-26T02:51:32.776Z,18.59
2022-07-26T02:53:59.662Z,18.57
2022-07-26T02:56:26.501Z,18.56
2022-07-26T02:58:53.379Z,18.56
2022-07-26T03:01:20.331Z,18.56
2022-07-26T03:03:50.858Z,18.54
2022-07-26T03:06:19.305Z,18.54
2022-07-26T03:08:46.912Z,18.53
2022-07-26T03:11:13.829Z,18.53
2022-07-26T03:13:40.916Z,18.51
2022-07-26T03:16:08.503Z,18.50
2022-07-26T03:18:35.587Z,18.49
2022-07-26T03:21:02.807Z,18.49
2022-07-26T03:23:33.666Z,18.49
2022-07-26T03:26:02.241Z,18.49
2022-07-26T03:28:33.456Z,18.48
2022-07-26T03:31:01.055Z,18.47
2022-07-26T03:33:29.965Z,18.45
2022-07-26T03:35:56.953Z,18.44
2022-07-26T03:38:24.261Z,18.43
2022-07-26T03:40:51.150Z,18.44
2022-07-26T03:43:23.070Z,18.42
2022-07-26T03:45:50.444Z,18.43
2022-07-26T03:48:17.415Z,18.43
2022-07-26T03:50:44.377Z,18.41
2022-07-26T03:53:11.248Z,18.38
2022-07-26T03:55:56.749Z,18.38
2022-07-26T03:58:23.568Z,18.39
2022-07-26T04:00:50.530Z,18.38
2022-07-26T04:03:17.514Z,18.35
2022-07-26T04:05:48.864Z,18.37
2022-07-26T04:08:16.589Z,18.36
2022-07-26T04:10:48.511Z,18.36
2022-07-26T04:13:15.386Z,18.36
2022-07-26T04:15:42.295Z,18.34
2022-07-26T04:18:09.533Z,18.33
2022-07-26T04:20:36.486Z,18.33
2022-07-26T04:23:03.366Z,18.33
2022-07-26T04:25:38.729Z,18.32
2022-07-26T04:28:08.630Z,18.32
2022-07-26T04:30:35.607Z,18.32
2022-07-26T04:33:02.533Z,18.32
2022-07-26T04:35:29.438Z,18.31
2022-07-26T04:37:56.351Z,18.30
2022-07-26T04:40:24.036Z,18.30
2022-07-26T04:42:52.309Z,18.29
2022-07-26T04:45:19.736Z,18.27
2022-07-26T04:47:51.596Z,18.28
2022-07-26T04:50:20.508Z,18.27
2022-07-26T04:52:48.399Z,18.25
2022-07-26T04:55:15.683Z,18.25
2022-07-26T04:57:42.983Z,18.26
2022-07-26T05:00:22.160Z,18.24
2022-07-26T05:02:50.454Z,18.24
2022-07-26T05:05:17.458Z,18.24
2022-07-26T05:07:52.840Z,18.23
2022-07-26T05:10:21.227Z,18.23
2022-07-26T05:12:49.037Z,18.21
2022-07-26T05:15:16.097Z,18.21
2022-07-26T05:17:43.797Z,18.18
2022-07-26T05:20:15.929Z,18.19
2022-07-26T05:22:43.188Z,18.20
2022-07-26T05:25:10.477Z,18.17
2022-07-26T05:27:37.489Z,18.16
2022-07-26T05:30:04.583Z,18.18
2022-07-26T05:32:31.498Z,17.96
2022-07-26T05:34:58.328Z,17.70
2022-07-26T05:37:25.227Z,17.53
2022-07-26T05:39:52.154Z,17.40
2022-07-26T05:42:19.065Z,17.28
2022-07-26T05:44:45.979Z,17.34
2022-07-26T05:47:13.258Z,17.49
2022-07-26T05:49:40.900Z,17.61
2022-07-26T05:52:09.251Z,17.67
2022-07-26T05:54:36.559Z,17.75
2022-07-26T05:57:03.972Z,17.80
2022-07-26T05:59:31.057Z,17.83
2022-07-26T06:01:57.986Z,17.85
2022-07-26T06:04:26.990Z,17.86
2022-07-26T06:06:55.319Z,17.90
2022-07-26T06:09:25.090Z,17.90
2022-07-26T06:11:52.143Z,17.90
2022-07-26T06:14:20.707Z,17.92
2022-07-26T06:16:48.472Z,17.94
2022-07-26T06:19:16.039Z,17.96
2022-07-26T06:21:43.109Z,17.93
2022-07-26T06:24:10.366Z,17.94
2022-07-26T06:26:37.737Z,17.96
2022-07-26T06:29:05.035Z,17.95
2022-07-26T06:31:32.062Z,17.97
2022-07-26T06:33:59.020Z,17.97
2022-07-26T06:36:30.337Z,17.96
2022-07-26T06:38:58.093Z,17.97
2022-07-26T06:41:25.051Z,17.98
2022-07-26T06:43:52.186Z,18.00
2022-07-26T06:46:21.319Z,18.01
2022-07-26T06:48:52.686Z,18.05
2022-07-26T06:51:20.054Z,18.08
2022-07-26T06:53:47.016Z,18.10
2022-07-26T06:56:15.223Z,18.13
2022-07-26T06:58:42.981Z,18.15
2022-07-26T07:01:10.097Z,18.15
2022-07-26T07:03:37.241Z,18.15
2022-07-26T07:06:04.324Z,18.16
2022-07-26T07:08:31.273Z,18.20
2022-07-26T07:10:59.697Z,18.29
2022-07-26T07:13:28.682Z,18.37
2022-07-26T07:15:55.603Z,18.44
2022-07-26T07:18:22.538Z,18.47
2022-07-26T07:20:49.507Z,18.50
2022-07-26T07:23:16.607Z,18.52
2022-07-26T07:25:44.894Z,18.44
2022-07-26T07:28:12.153Z,18.37
2022-07-26T07:30:39.225Z,18.38
2022-07-26T07:33:07.556Z,18.42
2022-07-26T07:35:34.420Z,18.40
2022-07-26T07:38:03.142Z,18.38
2022-07-26T07:40:30.509Z,18.36
2022-07-26T07:42:58.612Z,18.38
2022-07-26T07:45:25.488Z,18.40
2022-07-26T07:47:52.459Z,18.40
2022-07-26T07:50:19.422Z,18.43
2022-07-26T07:52:46.331Z,18.44
2022-07-26T07:55:41.195Z,18.50
2022-07-26T07:58:01.906Z,18.53
2022-07-26T08:00:29.026Z,18.53
2022-07-26T08:02:56.020Z,18.53
2022-07-26T08:05:23.188Z,18.56
2022-07-26T08:07:50.166Z,18.58
2022-07-26T08:10:19.888Z,18.60
2022-07-26T08:12:47.102Z,18.63
2022-07-26T08:15:19.466Z,18.65
2022-07-26T08:17:52.240Z,18.67
2022-07-26T08:20:23.697Z,18.72
2022-07-26T08:22:52.448Z,18.73
2022-07-26T08:25:19.805Z,18.72
2022-07-26T08:28:02.520Z,18.76
2022-07-26T08:30:30.285Z,18.80
2022-07-26T08:32:57.241Z,18.77
2022-07-26T08:35:24.221Z,18.76
2022-07-26T08:37:51.481Z,18.76
2022-07-26T08:40:18.527Z,18.76
2022-07-26T08:42:56.745Z,18.75
2022-07-26T08:45:29.462Z,18.76
2022-07-26T08:48:16.531Z,18.73
2022-07-26T08:50:44.691Z,18.56
2022-07-26T08:53:13.382Z,18.43
2022-07-26T08:56:05.284Z,18.39
2022-07-26T08:58:27.616Z,18.45
2022-07-26T09:01:09.423Z,18.58
2022-07-26T09:03:38.342Z,18.63
2022-07-26T09:06:20.496Z,18.63
2022-07-26T09:08:49.932Z,18.64
2022-07-26T09:11:27.498Z,18.66
2022-07-26T09:14:03.324Z,18.65
2022-07-26T09:16:36.008Z,18.64
2022-07-26T09:19:22.920Z,18.65
2022-07-26T09:21:50.624Z,18.64
2022-07-26T09:24:32.467Z,18.64
2022-07-26T09:27:01.277Z,18.63
2022-07-26T09:29:32.432Z,18.63
2022-07-26T09:32:18.019Z,18.64
2022-07-26T09:34:57.726Z,18.62
2022-07-26T09:37:40.282Z,18.63
2022-07-26T09:40:09.916Z,18.64
2022-07-26T09:42:36.933Z,18.63
2022-07-26T09:45:15.766Z,18.63
2022-07-26T09:47:42.878Z,18.64
2022-07-26T09:50:33.723Z,18.64
2022-07-26T09:53:12.046Z,18.64
2022-07-26T09:55:45.246Z,18.64
2022-07-26T09:58:14.507Z,18.62
2022-07-26T10:00:42.282Z,18.63
2022-07-26T10:03:09.590Z,18.64
2022-07-26T10:05:37.735Z,18.64
2022-07-26T10:08:05.954Z,18.63
2022-07-26T10:10:40.448Z,18.64
2022-07-26T10:13:08.873Z,18.63
2022-07-26T10:15:44.260Z,18.63
2022-07-26T10:18:39.152Z,18.67
2022-07-26T10:21:16.284Z,18.68
2022-07-26T10:23:49.319Z,18.74
2022-07-26T10:26:31.562Z,18.79
2022-07-26T10:29:16.881Z,18.77
2022-07-26T10:31:49.882Z,18.77
2022-07-26T10:34:37.357Z,18.83
2022-07-26T10:37:07.318Z,18.85
2022-07-26T10:39:34.665Z,18.85
2022-07-26T10:42:09.525Z,18.90
2022-07-26T10:44:47.377Z,18.94
2022-07-26T10:47:16.826Z,18.96
2022-07-26T10:49:55.829Z,18.96
2022-07-26T10:54:59.526Z,18.79
2022-07-26T10:57:47.020Z,18.75
2022-07-26T11:00:22.987Z,18.68
2022-07-26T11:02:54.248Z,18.63
2022-07-26T11:05:23.591Z,18.60
2022-07-26T11:07:58.454Z,18.54
2022-07-26T11:10:26.610Z,18.49
2022-07-26T11:13:25.627Z,18.46
2022-07-26T11:16:05.441Z,18.41
2022-07-26T11:18:37.745Z,18.40
2022-07-26T11:21:16.931Z,18.41
2022-07-26T11:23:48.324Z,18.44
2022-07-26T11:26:16.460Z,18.50
2022-07-26T11:28:55.605Z,18.56
2022-07-26T11:31:51.138Z,18.61
2022-07-26T11:34:29.171Z,18.64
2022-07-26T11:36:58.936Z,18.68
2022-07-26T11:39:43.661Z,18.67
2022-07-26T11:42:13.526Z,18.69
2022-07-26T11:44:44.838Z,18.68
2022-07-26T11:47:14.452Z,18.61
2022-07-26T11:49:59.892Z,18.55
2022-07-26T11:52:32.493Z,18.51
2022-07-26T11:54:59.830Z,18.48
2022-07-26T11:57:31.982Z,18.47
2022-07-26T12:00:00.895Z,18.47
2022-07-26T12:02:29.148Z,18.49
2022-07-26T12:05:22.642Z,18.47
2022-07-26T12:07:54.038Z,18.48
2022-07-26T12:10:21.090Z,18.49
2022-07-26T12:12:48.032Z,18.52
2022-07-26T12:15:15.926Z,18.55
2022-07-26T12:18:01.379Z,18.56
2022-07-26T12:20:28.587Z,18.55
2022-07-26T12:22:56.781Z,18.55
2022-07-26T12:25:29.955Z,18.58
2022-07-26T12:27:57.092Z,18.53
2022-07-26T12:30:24.398Z,18.49
2022-07-26T12:32:54.779Z,18.45
2022-07-26T12:35:33.819Z,18.45
2022-07-26T12:38:01.302Z,18.43
2022-07-26T12:40:30.786Z,18.39
2022-07-26T12:43:02.448Z,18.38
2022-07-26T12:45:35.182Z,18.42
2022-07-26T12:48:07.228Z,18.54
2022-07-26T12:50:34.143Z,18.55
2022-07-26T12:53:06.268Z,18.57
2022-07-26T12:55:34.295Z,18.59
2022-07-26T12:58:01.388Z,18.68
2022-07-26T13:00:30.019Z,18.70
2022-07-26T13:02:57.949Z,18.71
2022-07-26T13:05:25.717Z,18.72
2022-07-26T13:07:52.866Z,18.75
2022-07-26T13:10:33.027Z,18.87
2022-07-26T13:13:00.369Z,18.85
2022-07-26T13:15:36.331Z,18.82
2022-07-26T13:18:08.880Z,18.86
2022-07-26T13:20:39.828Z,18.93
2022-07-26T13:23:13.735Z,18.93
2022-07-26T13:25:41.244Z,18.95
2022-07-26T13:28:09.266Z,19.02
2022-07-26T13:30:38.553Z,19.01
2022-07-26T13:33:05.727Z,18.93
2022-07-26T13:35:32.752Z,18.88
2022-07-26T13:37:59.645Z,18.85
2022-07-26T13:40:31.577Z,18.89
2022-07-26T13:42:59.183Z,18.89
2022-07-26T13:45:29.301Z,18.88
2022-07-26T13:48:00.217Z,18.87
2022-07-26T13:50:28.389Z,18.84
2022-07-26T13:52:56.878Z,18.89
2022-07-26T13:55:24.998Z,18.90
2022-07-26T13:57:56.620Z,18.92
2022-07-26T14:00:26.276Z,18.90
2022-07-26T14:02:53.993Z,18.94
2022-07-26T14:05:21.195Z,18.92
2022-07-26T14:07:48.341Z,18.88
2022-07-26T14:10:15.590Z,18.89
2022-07-26T14:12:42.499Z,18.89
2022-07-26T14:15:15.257Z,18.89
2022-07-26T14:17:47.574Z,18.88
2022-07-26T14:20:15.707Z,18.87
2022-07-26T14:22:42.725Z,18.91
2022-07-26T14:25:10.237Z,18.93
2022-07-26T14:27:37.749Z,18.93
2022-07-26T14:30:05.665Z,18.92
2022-07-26T14:32:32.658Z,18.88
2022-07-26T14:34:59.621Z,18.89
2022-07-26T14:37:44.192Z,18.89
2022-07-26T14:40:14.536Z,18.87
2022-07-26T14:42:41.774Z,18.91
2022-07-26T14:45:10.022Z,18.91
2022-07-26T14:47:37.827Z,18.89
2022-07-26T14:50:07.304Z,18.86
2022-07-26T14:52:37.523Z,18.86
2022-07-26T14:55:05.575Z,18.82
2022-07-26T14:57:32.651Z,18.84
2022-07-26T15:00:02.328Z,18.86
2022-07-26T15:02:29.628Z,18.87
2022-07-26T15:04:57.507Z,18.85
2022-07-26T15:07:24.849Z,18.85
2022-07-26T15:09:51.883Z,18.87
2022-07-26T15:12:21.878Z,18.86
2022-07-26T15:14:48.877Z,18.89
2022-07-26T15:17:16.304Z,18.88
2022-07-26T15:19:43.243Z,18.92
2022-07-26T15:22:10.291Z,18.90
2022-07-26T15:24:39.957Z,18.92
2022-07-26T15:27:07.541Z,18.92
2022-07-26T15:29:36.168Z,18.92
2022-07-26T15:32:04.321Z,18.92
2022-07-26T15:34:32.178Z,18.91
2022-07-26T15:36:59.163Z,18.90
2022-07-26T15:39:26.059Z,18.92
2022-07-26T15:41:53.177Z,18.90
2022-07-26T15:44:24.292Z,18.89
2022-07-26T15:46:53.157Z,18.90
2022-07-26T15:49:20.720Z,18.89
2022-07-26T15:51:47.950Z,18.91
2022-07-26T15:54:16.672Z,18.90
2022-07-26T15:56:44.363Z,18.90
2022-07-26T15:59:12.073Z,18.91
2022-07-26T16:01:39.207Z,18.90
2022-07-26T16:04:06.475Z,18.90
2022-07-26T16:06:34.350Z,18.89
2022-07-26T16:09:19.279Z,18.91
2022-07-26T16:11:48.415Z,18.90
2022-07-26T16:14:16.689Z,18.90
2022-07-26T16:16:44.314Z,18.91
2022-07-26T16:19:12.427Z,18.91
2022-07-26T16:21:40.748Z,18.90
2022-07-26T16:24:08.235Z,18.92
2022-07-26T16:26:36.059Z,18.92
2022-07-26T16:29:03.890Z,18.91
2022-07-26T16:31:31.484Z,18.89
2022-07-26T16:33:58.788Z,18.91
2022-07-26T16:36:25.889Z,18.93
2022-07-26T16:38:52.952Z,18.94
2022-07-26T16:41:20.104Z,18.96
2022-07-26T16:43:47.046Z,18.96
2022-07-26T16:46:14.194Z,18.96
2022-07-26T16:48:41.194Z,18.97
2022-07-26T16:51:08.330Z,18.97
2022-07-26T16:53:35.555Z,18.96
2022-07-26T16:56:02.507Z,18.97
2022-07-26T16:58:29.430Z,18.95
2022-07-26T17:00:56.609Z,18.95
2022-07-26T17:03:24.138Z,18.94
2022-07-26T17:05:52.019Z,18.93
2022-07-26T17:08:19.265Z,18.95
2022-07-26T17:10:46.618Z,18.93
2022-07-26T17:13:13.703Z,18.92
2022-07-26T17:15:40.893Z,18.94
2022-07-26T17:18:07.882Z,18.93
2022-07-26T17:20:35.268Z,18.95
2022-07-26T17:23:02.332Z,18.93
2022-07-26T17:25:29.419Z,18.94
2022-07-26T17:27:57.391Z,18.95
2022-07-26T17:30:24.765Z,18.94
2022-07-26T17:32:52.751Z,18.94
2022-07-26T17:35:20.904Z,18.97
2022-07-26T17:37:48.317Z,19.00
2022-07-26T17:40:17.437Z,18.99
2022-07-26T17:42:44.444Z,18.99
2022-07-26T17:45:11.817Z,19.02
2022-07-26T17:47:38.795Z,19.02
2022-07-26T17:50:34.094Z,19.06
2022-07-26T17:52:55.283Z,19.08
2022-07-26T17:55:22.855Z,19.10
2022-07-26T17:57:51.133Z,19.12
2022-07-26T18:00:21.584Z,19.12
2022-07-26T18:02:49.369Z,19.15
2022-07-26T18:05:17.040Z,19.18
2022-07-26T18:07:44.155Z,19.20
2022-07-26T18:10:11.910Z,19.23
2022-07-26T18:12:39.018Z,19.26
2022-07-26T18:15:07.928Z,19.27
2022-07-26T18:17:35.107Z,19.32
2022-07-26T18:20:02.395Z,19.34
2022-07-26T18:22:29.684Z,19.36
2022-07-26T18:24:56.944Z,19.38
2022-07-26T18:27:28.385Z,19.39
2022-07-26T18:29:56.703Z,19.40
2022-07-26T18:32:27.876Z,19.41
2022-07-26T18:34:56.239Z,19.43
2022-07-26T18:37:23.822Z,19.46
2022-07-26T18:39:57.095Z,19.51
2022-07-26T18:42:24.978Z,19.52
2022-07-26T18:44:52.494Z,19.51
2022-07-26T18:47:19.788Z,19.50
2022-07-26T18:49:47.210Z,19.53
2022-07-26T18:52:15.287Z,19.51
2022-07-26T18:54:45.007Z,19.49
2022-07-26T18:57:13.783Z,19.48
2022-07-26T18:59:40.972Z,19.46
2022-07-26T19:02:08.133Z,19.48
2022-07-26T19:04:35.848Z,19.48
2022-07-26T19:07:03.281Z,19.49
2022-07-26T19:09:31.180Z,19.47
2022-07-26T19:11:59.262Z,19.46
2022-07-26T19:14:29.875Z,19.45
2022-07-26T19:16:56.982Z,19.46
2022-07-26T19:19:24.936Z,19.46
2022-07-26T19:21:53.773Z,19.48
2022-07-26T19:24:23.215Z,19.55
2022-07-26T19:26:50.475Z,19.60
2022-07-26T19:29:18.730Z,19.60
2022-07-26T19:31:48.596Z,19.60
2022-07-26T19:34:15.829Z,19.60
2022-07-26T19:36:43.015Z,19.60
2022-07-26T19:39:10.721Z,19.60
2022-07-26T19:41:39.240Z,19.59
2022-07-26T19:44:06.717Z,19.59
2022-07-26T19:46:34.838Z,19.56
2022-07-26T19:49:05.599Z,19.59
2022-07-26T19:51:33.270Z,19.58
2022-07-26T19:54:01.013Z,19.56
2022-07-26T19:56:29.371Z,19.58
2022-07-26T19:58:57.709Z,19.58
2022-07-26T20:01:25.002Z,19.61
2022-07-26T20:03:55.540Z,19.60
2022-07-26T20:06:27.652Z,19.59
2022-07-26T20:08:55.300Z,19.56
2022-07-26T20:11:27.932Z,19.56
2022-07-26T20:13:56.063Z,19.59
2022-07-26T20:16:23.538Z,19.61
2022-07-26T20:18:56.576Z,19.58
2022-07-26T20:21:23.959Z,19.56
2022-07-26T20:23:51.354Z,19.56
2022-07-26T20:26:18.607Z,19.55
2022-07-26T20:28:46.767Z,19.56
2022-07-26T20:31:18.042Z,19.56
2022-07-26T20:33:47.418Z,19.56
2022-07-26T20:36:15.782Z,19.57
2022-07-26T20:38:47.016Z,19.56
2022-07-26T20:41:16.897Z,19.56
2022-07-26T20:43:48.786Z,19.56
2022-07-26T20:46:16.418Z,19.55
2022-07-26T20:48:47.516Z,19.60
2022-07-26T20:51:14.925Z,19.61
2022-07-26T20:53:44.133Z,19.61
2022-07-26T20:56:11.673Z,19.60
2022-07-26T20:58:38.923Z,19.58
2022-07-26T21:01:08.315Z,19.57
2022-07-26T21:03:35.616Z,19.54
2022-07-26T21:06:03.390Z,19.53
2022-07-26T21:08:31.586Z,19.52
2022-07-26T21:10:58.940Z,19.51
2022-07-26T21:13:27.537Z,19.49
2022-07-26T21:15:55.977Z,19.46
2022-07-26T21:18:30.645Z,19.46
2022-07-26T21:20:58.793Z,19.44
2022-07-26T21:23:26.779Z,19.42
2022-07-26T21:25:58.223Z,19.42
2022-07-26T21:28:39.421Z,19.41
2022-07-26T21:31:10.431Z,19.40
2022-07-26T21:33:49.423Z,19.38
2022-07-26T21:36:21.893Z,19.36
2022-07-26T21:38:49.493Z,19.33
2022-07-26T21:41:27.537Z,19.33
2022-07-26T21:43:55.527Z,19.32
2022-07-26T21:46:22.890Z,19.32
2022-07-26T21:48:55.268Z,19.30
2022-07-26T21:51:25.001Z,19.29
2022-07-26T21:53:55.969Z,19.29
2022-07-26T21:56:27.945Z,19.29
2022-07-26T21:59:11.707Z,19.27
2022-07-26T22:01:41.042Z,19.26
2022-07-26T22:04:08.582Z,19.27
2022-07-26T22:06:36.106Z,19.25
2022-07-26T22:09:06.345Z,19.24
2022-07-26T22:11:34.869Z,19.22
2022-07-26T22:14:03.284Z,19.21
2022-07-26T22:16:32.036Z,19.20
2022-07-26T22:18:59.481Z,19.20
2022-07-26T22:21:29.610Z,19.18
2022-07-26T22:23:56.761Z,19.17
2022-07-26T22:26:27.716Z,19.16
2022-07-26T22:28:54.966Z,19.17
2022-07-26T22:31:22.055Z,19.16
2022-07-26T22:33:49.163Z,19.15
2022-07-26T22:36:17.930Z,19.16
2022-07-26T22:38:46.739Z,19.14
2022-07-26T22:41:13.759Z,19.11
2022-07-26T22:43:42.326Z,19.11
2022-07-26T22:46:09.654Z,19.09
2022-07-26T22:48:38.658Z,19.10
2022-07-26T22:51:06.640Z,19.10
2022-07-26T22:53:34.926Z,19.08
2022-07-26T22:56:02.067Z,19.07
2022-07-26T22:58:29.173Z,19.06
2022-07-26T23:00:56.625Z,19.06
2022-07-26T23:03:23.713Z,19.07
2022-07-26T23:05:52.298Z,19.05
2022-07-26T23:11:06.651Z,19.03
2022-07-26T23:13:33.930Z,19.01
2022-07-26T23:16:01.908Z,19.02
2022-07-26T23:18:30.835Z,19.00
2022-07-26T23:20:58.620Z,19.00
2022-07-26T23:23:29.847Z,19.01
2022-07-26T23:25:58.276Z,19.00
2022-07-26T23:28:35.527Z,18.99
2022-07-26T23:31:03.731Z,18.98
2022-07-26T23:33:53.282Z,18.98
2022-07-26T23:36:17.883Z,18.96
2022-07-26T23:38:44.861Z,18.95
2022-07-26T23:41:11.802Z,18.93
2022-07-26T23:43:38.741Z,18.93
2022-07-26T23:46:05.690Z,18.92
2022-07-26T23:48:32.733Z,18.92
2022-07-26T23:50:59.656Z,18.93
2022-07-26T23:53:27.269Z,18.92
2022-07-26T23:55:54.663Z,18.89
2022-07-26T23:58:21.968Z,18.91
